Sanem, Luxembourg
Current Conditions -  °F | °C
As of 2:20 AM on Monday 22 Dec 2014 (Local Time) from ELLX Reporting Station
NA  
Wind Chill: 32°   Ceiling: NA
Heat Index: 41°   Visibility: 6mi
Dew Point: 39°   Wind: 17mph
Humidity: 93%   Direction: 230°SW
Pressure: 30.3"   Gusts: NA
Location:  49.55°N, 5.93°E
Report Text: ELLX 220120Z AUTO 23015KT 200V260 9999 NDV 05/04 Q1026
Loading
Personal Weather Stations






























Interactive Weather Map New forecast layout! Learn more

10-Day Weather Forecast

Advertisements
Track Severe Weather on mobile